Time;durP1;ratioP1;P1;durP2;ratioP2;P2;SDS_P1;SDS_P2;PMS_P1;PMS_P2;Temp;Humidity;BMP_temperature;BMP_pressure;BME280_temperature;BME280_humidity;BME280_pressure;Samples;Min_cycle;Max_cycle;Signal;HPM_P1;HPM_P2
2022/03/21 00:00:56;;;;;;;10.53;9.17;;;;;;;0.22;100.00;98501.44;4971811;28;20299;-53
2022/03/21 00:03:28;;;;;;;10.47;8.97;;;;;;;0.20;100.00;98498.06;5009794;28;20309;-53
2022/03/21 00:05:57;;;;;;;8.77;7.97;;;;;;;0.16;100.00;98500.94;4960479;28;20278;-52
2022/03/21 00:08:25;;;;;;;9.33;8.33;;;;;;;-0.03;100.00;98502.78;5006380;28;20775;-50
2022/03/21 00:10:56;;;;;;;9.23;8.33;;;;;;;-0.06;100.00;98508.16;5003692;28;20728;-55
2022/03/21 00:13:24;;;;;;;9.30;8.40;;;;;;;-0.17;100.00;98506.16;5008226;28;20936;-52
2022/03/21 00:15:54;;;;;;;10.47;9.00;;;;;;;-0.21;100.00;98501.16;4993382;28;20684;-52
2022/03/21 00:18:23;;;;;;;11.30;8.80;;;;;;;-0.24;100.00;98503.94;4984967;28;20484;-51
2022/03/21 00:20:53;;;;;;;8.97;8.07;;;;;;;-0.31;100.00;98503.47;4970919;28;20223;-47
2022/03/21 00:23:22;;;;;;;8.23;7.47;;;;;;;-0.33;100.00;98505.31;4996146;28;20567;-54
2022/03/21 00:25:50;;;;;;;9.43;8.40;;;;;;;-0.46;100.00;98500.72;5006694;28;20270;-50
2022/03/21 00:28:20;;;;;;;9.30;8.37;;;;;;;-0.37;100.00;98504.63;5005201;28;20327;-54
2022/03/21 00:30:48;;;;;;;10.00;8.63;;;;;;;-0.47;100.00;98504.25;4993812;28;20224;-50
2022/03/21 00:33:17;;;;;;;9.37;8.37;;;;;;;-0.57;100.00;98504.81;4981511;28;20589;-55
2022/03/21 00:35:47;;;;;;;11.33;8.40;;;;;;;-0.46;100.00;98508.53;4976052;28;20213;-53
2022/03/21 00:38:17;;;;;;;8.80;7.90;;;;;;;-0.51;100.00;98514.94;4992090;28;20755;-50
2022/03/21 00:40:46;;;;;;;8.37;7.57;;;;;;;-0.45;100.00;98507.63;5006472;28;20209;-50
2022/03/21 00:43:15;;;;;;;9.77;8.80;;;;;;;-0.67;100.00;98517.50;5003438;28;20267;-51
2022/03/21 00:45:46;;;;;;;8.27;7.13;;;;;;;-0.76;100.00;98513.59;5010154;28;20211;-53
2022/03/21 00:48:14;;;;;;;9.73;7.77;;;;;;;-0.66;100.00;98512.19;4968733;28;20224;-53
2022/03/21 00:50:42;;;;;;;11.23;8.93;;;;;;;-0.55;100.00;98510.81;4971364;28;20220;-50
2022/03/21 00:53:10;;;;;;;9.13;7.70;;;;;;;-0.54;100.00;98509.91;4993060;28;20201;-53
2022/03/21 00:55:38;;;;;;;8.60;7.80;;;;;;;-0.66;100.00;98507.00;5006678;28;20204;-51
2022/03/21 00:58:07;;;;;;;9.37;8.43;;;;;;;-0.65;100.00;98507.84;5008001;28;20311;-53
2022/03/21 01:00:35;;;;;;;9.37;8.47;;;;;;;-0.77;100.00;98506.72;5007463;28;20247;-53
2022/03/21 01:03:05;;;;;;;9.50;8.43;;;;;;;-0.76;100.00;98498.84;4969676;28;20254;-54
2022/03/21 01:05:33;;;;;;;8.53;7.73;;;;;;;-0.72;100.00;98504.72;5004120;28;20216;-53
2022/03/21 01:08:02;;;;;;;9.60;8.10;;;;;;;-0.61;100.00;98504.97;4958177;28;20232;-55
2022/03/21 01:10:31;;;;;;;14.23;8.13;;;;;;;-0.67;100.00;98507.91;5002749;28;20448;-52
2022/03/21 01:13:00;;;;;;;10.00;7.87;;;;;;;-0.57;100.00;98508.28;5006339;28;20208;-52
2022/03/21 01:15:29;;;;;;;8.93;8.07;;;;;;;-0.62;100.00;98511.13;4999351;28;20824;-53
2022/03/21 01:17:58;;;;;;;8.20;7.47;;;;;;;-0.62;100.00;98510.28;4988810;28;20358;-57
2022/03/21 01:20:28;;;;;;;8.97;8.07;;;;;;;-0.69;100.00;98514.13;4980822;28;20219;-51
2022/03/21 01:22:56;;;;;;;8.17;7.37;;;;;;;-0.77;100.00;98517.13;4959355;28;20315;-51
2022/03/21 01:25:24;;;;;;;9.80;8.57;;;;;;;-0.74;100.00;98522.19;5002116;28;20349;-55
2022/03/21 01:27:53;;;;;;;9.30;8.30;;;;;;;-0.74;100.00;98519.56;5007457;28;20307;-52
2022/03/21 01:30:21;;;;;;;8.07;7.37;;;;;;;-0.66;100.00;98512.19;4999963;28;20564;-51
2022/03/21 01:32:49;;;;;;;8.47;7.43;;;;;;;-0.86;100.00;98513.25;5002876;28;20893;-51
2022/03/21 01:35:18;;;;;;;8.47;7.43;;;;;;;-0.90;100.00;98520.38;4965249;28;20200;-51
2022/03/21 01:37:48;;;;;;;8.77;7.90;;;;;;;-0.91;100.00;98518.69;4969671;28;20378;-49
2022/03/21 01:40:17;;;;;;;9.23;8.33;;;;;;;-1.03;100.00;98524.50;4990253;28;20291;-53
2022/03/21 01:42:47;;;;;;;9.10;7.77;;;;;;;-1.02;100.00;98526.19;5005712;28;20644;-52
2022/03/21 01:45:17;;;;;;;8.20;7.50;;;;;;;-1.10;100.00;98525.75;5002911;28;20748;-51
2022/03/21 01:47:46;;;;;;;8.67;7.33;;;;;;;-1.27;100.00;98527.44;5000792;28;20308;-54
2022/03/21 01:50:15;;;;;;;9.00;8.17;;;;;;;-1.16;100.00;98524.28;4976753;28;20212;-51
2022/03/21 01:52:44;;;;;;;9.97;7.57;;;;;;;-1.20;100.00;98536.63;4966089;28;20943;-55
2022/03/21 01:58:02;;;;;;;8.83;8.00;;;;;;;-1.42;100.00;98529.03;5002148;28;20595;-52
2022/03/21 02:00:30;;;;;;;10.47;8.20;;;;;;;-1.50;100.00;98525.97;5003958;28;20871;-55
2022/03/21 02:02:58;;;;;;;10.90;9.10;;;;;;;-1.63;100.00;98528.31;5002883;28;20702;-52
2022/03/21 02:05:28;;;;;;;9.40;8.37;;;;;;;-1.70;100.00;98519.97;4967200;28;20243;-56
2022/03/21 02:07:56;;;;;;;9.90;8.80;;;;;;;-1.66;100.00;98523.28;4967455;28;20212;-53
2022/03/21 02:10:25;;;;;;;12.10;8.77;;;;;;;-1.85;100.00;98526.72;4991725;28;20307;-53
2022/03/21 02:12:53;;;;;;;10.37;9.37;;;;;;;-1.78;100.00;98516.91;5004361;28;20210;-55
2022/03/21 02:15:22;;;;;;;10.77;9.67;;;;;;;-1.77;100.00;98521.19;5004687;28;20219;-54
2022/03/21 02:17:53;;;;;;;10.40;9.00;;;;;;;-1.92;100.00;98525.34;5004124;28;20699;-52
2022/03/21 02:20:22;;;;;;;11.13;8.70;;;;;;;-1.91;100.00;98530.44;5005266;28;21056;-51
2022/03/21 02:23:07;;;;;;;10.67;9.60;;;;;;;-1.99;100.00;98524.78;4926589;28;20694;-50
2022/03/21 02:25:38;;;;;;;11.80;9.23;;;;;;;-2.02;100.00;98522.31;4981956;28;20314;-53
2022/03/21 02:28:08;;;;;;;11.33;9.83;;;;;;;-2.10;100.00;98514.88;5002893;28;20335;-52
2022/03/21 02:30:39;;;;;;;9.40;8.60;;;;;;;-2.21;100.00;98515.41;4998395;28;20438;-53
2022/03/21 02:33:08;;;;;;;10.17;8.47;;;;;;;-2.17;100.00;98507.47;5002081;28;20236;-51
2022/03/21 02:35:36;;;;;;;8.80;7.90;;;;;;;-2.13;100.00;98509.00;5002278;28;20692;-54
2022/03/21 02:38:06;;;;;;;9.67;8.67;;;;;;;-2.10;100.00;98508.84;4933517;28;20608;-53
2022/03/21 02:40:36;;;;;;;8.60;7.70;;;;;;;-2.12;100.00;98510.69;4988219;28;20410;-54
2022/03/21 02:43:04;;;;;;;9.23;8.33;;;;;;;-2.22;100.00;98508.53;5004916;28;20643;-51
2022/03/21 02:45:33;;;;;;;10.37;8.60;;;;;;;-2.16;100.00;98504.78;5001436;28;20549;-53
2022/03/21 02:48:01;;;;;;;10.23;8.27;;;;;;;-2.17;100.00;98513.50;5005912;28;20224;-52
2022/03/21 02:50:33;;;;;;;9.80;8.77;;;;;;;-2.09;100.00;98515.75;4986556;28;20316;-52
2022/03/21 02:53:03;;;;;;;9.63;8.20;;;;;;;-2.23;100.00;98516.38;4971717;28;20243;-49
2022/03/21 02:55:31;;;;;;;9.27;8.23;;;;;;;-2.21;100.00;98519.75;4958439;28;20699;-49
2022/03/21 02:58:02;;;;;;;10.63;9.60;;;;;;;-2.38;100.00;98521.38;5006807;28;20785;-53
2022/03/21 03:00:30;;;;;;;10.93;8.57;;;;;;;-2.39;100.00;98517.09;5004203;28;20948;-50
2022/03/21 03:02:58;;;;;;;9.83;8.33;;;;;;;-2.36;100.00;98529.06;5005261;28;20290;-54
2022/03/21 03:05:27;;;;;;;10.33;8.40;;;;;;;-2.37;100.00;98520.44;5004570;28;20564;-55
2022/03/21 03:07:55;;;;;;;9.93;8.67;;;;;;;-2.48;100.00;98525.25;4973530;28;20213;-54
2022/03/21 03:10:23;;;;;;;9.27;8.33;;;;;;;-2.59;100.00;98530.09;4948206;28;20590;-53
2022/03/21 03:12:51;;;;;;;10.17;8.20;;;;;;;-2.67;100.00;98526.09;5010844;28;20498;-48
2022/03/21 03:15:21;;;;;;;8.93;7.97;;;;;;;-2.58;100.00;98534.38;5014248;28;20228;-53
2022/03/21 03:17:49;;;;;;;10.27;9.10;;;;;;;-2.64;100.00;98540.69;5014018;28;20235;-55
2022/03/21 03:20:17;;;;;;;8.17;7.47;;;;;;;-2.74;100.00;98537.66;5004756;28;20297;-55
2022/03/21 03:22:46;;;;;;;10.40;9.40;;;;;;;-2.73;100.00;98546.28;5007222;28;20247;-55
2022/03/21 03:25:15;;;;;;;9.90;8.90;;;;;;;-2.96;100.00;98535.97;4944329;28;20707;-53
2022/03/21 03:27:43;;;;;;;11.03;8.87;;;;;;;-2.98;100.00;98542.16;4986948;28;20565;-53
2022/03/21 03:30:11;;;;;;;9.17;8.27;;;;;;;-3.00;100.00;98552.56;5000501;28;21124;-53
2022/03/21 03:32:41;;;;;;;10.53;8.47;;;;;;;-2.91;100.00;98541.81;5006009;28;20275;-56
2022/03/21 03:35:10;;;;;;;12.03;8.10;;;;;;;-3.07;100.00;98549.38;5001457;28;20288;-50
2022/03/21 03:37:38;;;;;;;13.17;7.90;;;;;;;-3.06;100.00;98550.25;5001995;28;20213;-53
2022/03/21 03:40:09;;;;;;;10.50;8.80;;;;;;;-3.01;100.00;98548.31;4976142;28;20300;-53
2022/03/21 03:42:37;;;;;;;8.37;7.57;;;;;;;-2.99;100.00;98538.69;4947826;28;20687;-56
2022/03/21 03:45:06;;;;;;;9.47;8.50;;;;;;;-3.06;100.00;98540.69;5002573;28;20217;-53
2022/03/21 03:47:35;;;;;;;9.13;8.10;;;;;;;-3.26;100.00;98549.31;5010637;28;20204;-52
2022/03/21 03:50:05;;;;;;;10.23;9.13;;;;;;;-3.17;100.00;98545.50;5006882;28;20315;-52
2022/03/21 03:52:33;;;;;;;10.57;9.37;;;;;;;-3.11;100.00;98553.03;5008978;28;20682;-52
2022/03/21 03:55:01;;;;;;;9.47;8.57;;;;;;;-3.12;100.00;98553.09;4978067;28;20358;-53
2022/03/21 03:57:29;;;;;;;10.23;9.23;;;;;;;-2.92;100.00;98547.91;4966696;28;21691;-53
2022/03/21 03:59:58;;;;;;;10.10;8.87;;;;;;;-2.83;100.00;98541.47;4992780;28;20580;-51
2022/03/21 04:02:26;;;;;;;10.13;9.13;;;;;;;-3.07;100.00;98544.22;5008179;28;20397;-50
2022/03/21 04:04:55;;;;;;;11.10;8.90;;;;;;;-2.98;100.00;98548.16;5010798;28;20229;-58
2022/03/21 04:07:24;;;;;;;11.37;9.43;;;;;;;-2.93;100.00;98547.97;5003705;28;20279;-54
2022/03/21 04:09:53;;;;;;;12.30;9.53;;;;;;;-2.98;100.00;98540.38;4979219;28;20316;-59
2022/03/21 04:12:21;;;;;;;9.83;8.87;;;;;;;-2.96;100.00;98543.75;4978425;28;20204;-57
2022/03/21 04:14:49;;;;;;;8.97;7.83;;;;;;;-3.07;100.00;98539.00;4947771;28;20543;-52
2022/03/21 04:17:17;;;;;;;9.57;8.60;;;;;;;-3.14;100.00;98536.78;5010814;28;20259;-52
2022/03/21 04:19:46;;;;;;;13.40;10.50;;;;;;;-3.22;100.00;98537.09;5006696;28;20334;-53
2022/03/21 04:22:14;;;;;;;9.67;8.23;;;;;;;-3.17;100.00;98539.50;5008305;28;20295;-55
2022/03/21 04:24:43;;;;;;;11.77;9.30;;;;;;;-3.18;100.00;98543.00;5005683;28;20626;-51
2022/03/21 04:27:12;;;;;;;9.03;8.13;;;;;;;-3.29;100.00;98536.47;4987469;28;20212;-56
2022/03/21 04:29:40;;;;;;;10.33;9.33;;;;;;;-3.32;100.00;98539.19;4974231;28;20314;-50
2022/03/21 04:32:08;;;;;;;12.33;10.50;;;;;;;-3.32;100.00;98540.97;4988320;28;20420;-53
2022/03/21 04:34:37;;;;;;;10.13;9.07;;;;;;;-3.32;100.00;98540.97;5005975;28;20749;-55
2022/03/21 04:37:05;;;;;;;9.13;8.30;;;;;;;-3.33;100.00;98544.47;4975792;28;21140;-53
2022/03/21 04:39:33;;;;;;;10.17;9.07;;;;;;;-3.41;100.00;98544.78;5008941;28;20307;-55
2022/03/21 04:42:03;;;;;;;11.13;9.70;;;;;;;-3.34;100.00;98548.78;4978299;28;20367;-56
2022/03/21 04:44:31;;;;;;;10.10;9.13;;;;;;;-3.34;100.00;98541.00;4969101;28;20212;-51
2022/03/21 04:47:00;;;;;;;9.60;8.60;;;;;;;-3.30;100.00;98549.53;4964238;28;21053;-52
2022/03/21 04:49:28;;;;;;;9.03;8.17;;;;;;;-3.44;100.00;98550.91;5008518;28;20224;-50
2022/03/21 04:51:56;;;;;;;11.63;10.20;;;;;;;-3.42;100.00;98558.63;5005659;28;20902;-54
2022/03/21 04:54:27;;;;;;;10.57;9.07;;;;;;;-3.49;100.00;98555.44;4977610;28;20743;-52
2022/03/21 04:56:55;;;;;;;13.37;10.10;;;;;;;-3.41;100.00;98560.31;4978170;28;20320;-51
2022/03/21 04:59:25;;;;;;;10.73;9.20;;;;;;;-3.49;100.00;98558.03;4962432;28;20602;-49
2022/03/21 05:01:53;;;;;;;12.37;9.47;;;;;;;-3.54;100.00;98549.59;4959025;28;20339;-54
2022/03/21 05:04:22;;;;;;;10.03;9.03;;;;;;;-3.65;100.00;98562.97;5004354;28;20628;-55
2022/03/21 05:06:50;;;;;;;10.17;9.17;;;;;;;-3.60;100.00;98570.56;5006901;28;20751;-51
2022/03/21 05:09:18;;;;;;;10.17;9.17;;;;;;;-3.57;100.00;98573.91;5007636;28;20220;-55
2022/03/21 05:11:47;;;;;;;12.93;10.10;;;;;;;-3.60;100.00;98568.00;5009876;28;20208;-51
2022/03/21 05:14:18;;;;;;;11.00;9.43;;;;;;;-3.67;100.00;98569.97;4980961;28;20932;-57
2022/03/21 05:16:48;;;;;;;10.13;9.10;;;;;;;-3.67;100.00;98557.88;4961925;28;20668;-54
2022/03/21 05:19:16;;;;;;;9.67;8.67;;;;;;;-3.65;100.00;98571.59;4999627;28;20323;-55
2022/03/21 05:21:45;;;;;;;12.60;9.23;;;;;;;-3.55;100.00;98576.41;5004368;28;20350;-54
2022/03/21 05:32:32;;;;;;;11.67;10.00;;;;;;;-3.44;100.00;98571.63;5006270;28;20208;-53
2022/03/21 05:37:45;;;;;;;9.87;8.97;;;;;;;-3.31;100.00;98576.34;5007920;28;20641;-57
2022/03/21 05:40:34;;;;;;;12.53;11.10;;;;;;;-3.29;100.00;98580.56;5006628;28;20232;-55
2022/03/21 05:43:02;;;;;;;13.77;10.53;;;;;;;-3.24;100.00;98578.59;5005970;28;20200;-56
2022/03/21 05:45:30;;;;;;;12.63;10.70;;;;;;;-3.26;100.00;98580.41;4983266;28;20204;-50
2022/03/21 05:50:45;;;;;;;11.63;9.43;;;;;;;-3.00;100.00;98588.06;4987663;28;20244;-53
2022/03/21 05:53:14;;;;;;;11.50;10.00;;;;;;;-2.98;100.00;98592.25;5004708;28;20287;-56
2022/03/21 05:55:45;;;;;;;12.30;9.97;;;;;;;-2.99;100.00;98598.34;5006334;28;20274;-53
2022/03/21 05:58:13;;;;;;;10.80;9.57;;;;;;;-2.76;100.00;98593.97;5005785;28;20232;-53
2022/03/21 06:00:42;;;;;;;10.57;9.40;;;;;;;-2.73;100.00;98598.16;4977058;28;20339;-54
2022/03/21 06:03:11;;;;;;;10.07;9.13;;;;;;;-2.29;100.00;98608.34;4965143;28;20216;-58
2022/03/21 06:05:40;;;;;;;9.13;8.23;;;;;;;-0.92;100.00;98594.22;4987965;28;20200;-53
2022/03/21 06:08:09;;;;;;;9.27;8.50;;;;;;;0.56;100.00;98598.59;5007934;28;20251;-58
2022/03/21 06:10:37;;;;;;;10.13;9.00;;;;;;;1.34;100.00;98609.03;5004721;28;20597;-54
2022/03/21 06:13:06;;;;;;;11.57;8.97;;;;;;;1.08;100.00;98609.63;5002223;28;20373;-53
2022/03/21 06:15:35;;;;;;;13.17;10.13;;;;;;;0.15;100.00;98619.97;4945840;28;20684;-56
2022/03/21 06:18:11;;;;;;;10.13;8.53;;;;;;;-0.38;100.00;98620.13;4935995;28;21153;-57
2022/03/21 06:20:40;;;;;;;10.40;9.33;;;;;;;-0.42;100.00;98620.34;5004871;28;20210;-55
2022/03/21 06:23:08;;;;;;;9.60;8.70;;;;;;;-0.89;100.00;98623.56;4966873;28;20248;-57
2022/03/21 06:25:37;;;;;;;10.43;9.37;;;;;;;-0.92;100.00;98628.06;5004382;28;20267;-55
2022/03/21 06:28:05;;;;;;;10.53;8.07;;;;;;;-1.06;100.00;98626.13;4998887;28;20209;-51
2022/03/21 06:30:34;;;;;;;9.80;8.53;;;;;;;-0.92;100.00;98623.69;5002733;28;20307;-54
2022/03/21 06:33:06;;;;;;;8.97;7.97;;;;;;;-0.89;100.00;98633.97;4979121;28;20209;-52
2022/03/21 06:35:36;;;;;;;9.53;8.50;;;;;;;-0.88;100.00;98625.22;4955383;28;20216;-54
2022/03/21 06:38:04;;;;;;;9.40;8.47;;;;;;;-0.72;100.00;98634.88;4943893;28;20248;-52
2022/03/21 06:40:33;;;;;;;9.60;8.33;;;;;;;-0.62;100.00;98630.88;5005846;28;20208;-55
2022/03/21 06:43:02;;;;;;;9.83;8.83;;;;;;;-0.47;100.00;98649.25;4995158;28;20235;-54
2022/03/21 06:45:31;;;;;;;12.83;8.37;;;;;;;-0.40;100.00;98645.41;5007856;28;20319;-55
2022/03/21 06:48:00;;;;;;;9.63;7.63;;;;;;;-0.16;100.00;98642.47;4979180;28;20212;-55
2022/03/21 06:50:28;;;;;;;9.37;8.37;;;;;;;0.02;100.00;98645.03;4970227;28;21329;-57
2022/03/21 06:52:58;;;;;;;9.80;8.27;;;;;;;0.06;100.00;98654.34;4989169;28;20880;-54
2022/03/21 06:55:27;;;;;;;9.63;8.07;;;;;;;0.11;100.00;98652.34;5007257;28;20209;-57
2022/03/21 06:57:55;;;;;;;9.57;7.83;;;;;;;0.27;95.93;98652.38;4992116;28;20228;-56
2022/03/21 07:00:23;;;;;;;11.82;9.10;;;;;;;0.43;88.91;98652.38;5008064;28;20453;-56
2022/03/21 07:02:51;;;;;;;9.32;8.43;;;;;;;0.77;84.97;98649.69;4982648;28;21200;-55
2022/03/21 07:05:20;;;;;;;10.43;7.70;;;;;;;0.86;77.24;98657.81;4974560;28;20212;-56
2022/03/21 07:07:50;;;;;;;9.87;7.30;;;;;;;0.89;72.52;98661.19;5002150;28;20882;-56
2022/03/21 07:10:20;;;;;;;8.10;7.40;;;;;;;1.08;70.15;98661.84;4991683;28;20212;-56
2022/03/21 07:12:48;;;;;;;8.00;7.20;;;;;;;1.27;69.46;98660.78;5005124;28;20255;-54
2022/03/21 07:15:16;;;;;;;8.80;7.90;;;;;;;1.36;68.08;98657.66;5006859;28;20247;-55
2022/03/21 07:17:45;;;;;;;10.50;7.90;;;;;;;1.69;65.02;98666.19;4964326;28;20525;-57
2022/03/21 07:20:14;;;;;;;8.33;7.07;;;;;;;1.78;64.68;98659.59;4970177;28;20321;-55
2022/03/21 07:22:42;;;;;;;8.57;7.77;;;;;;;1.72;63.60;98674.72;5008605;28;20715;-56
2022/03/21 07:25:10;;;;;;;7.53;6.83;;;;;;;1.77;62.25;98677.03;4995396;28;20204;-56
2022/03/21 07:27:44;;;;;;;8.03;7.33;;;;;;;1.97;61.55;98677.63;5007144;28;20209;-53
2022/03/21 07:30:13;;;;;;;7.90;7.10;;;;;;;2.25;61.44;98674.16;5007705;28;20236;-53
2022/03/21 07:32:42;;;;;;;9.33;7.90;;;;;;;2.76;59.31;98670.16;4990148;28;20237;-54
2022/03/21 07:35:11;;;;;;;7.23;6.53;;;;;;;4.12;53.19;98680.47;5007507;28;20292;-54
2022/03/21 07:37:40;;;;;;;7.97;7.03;;;;;;;5.36;49.05;98679.56;4973277;28;20257;-53
2022/03/21 07:40:11;;;;;;;8.80;7.37;;;;;;;6.76;45.22;98682.94;5007220;28;20685;-54
2022/03/21 07:42:41;;;;;;;9.93;8.47;;;;;;;7.75;42.42;98674.06;4995605;28;20212;-54
2022/03/21 07:47:57;;;;;;;8.87;8.07;;;;;;;9.77;38.94;98674.13;4987192;28;21726;-58
2022/03/21 07:50:25;;;;;;;9.30;7.97;;;;;;;8.83;38.28;98679.00;5013096;28;20606;-57
2022/03/21 07:52:54;;;;;;;8.90;8.10;;;;;;;7.27;40.13;98678.03;4970409;28;20214;-56
2022/03/21 07:55:23;;;;;;;8.47;7.67;;;;;;;6.59;42.63;98681.66;5007890;28;20617;-54
2022/03/21 07:57:52;;;;;;;10.57;7.83;;;;;;;5.38;44.33;98682.91;4993705;28;20920;-53
2022/03/21 08:00:21;;;;;;;9.03;8.10;;;;;;;4.96;45.69;98685.13;5009817;28;20720;-56
2022/03/21 08:02:51;;;;;;;8.57;7.70;;;;;;;4.91;45.69;98683.66;5007245;28;20293;-52
2022/03/21 08:05:20;;;;;;;7.70;6.87;;;;;;;4.94;46.85;98690.50;4988236;28;20236;-57
2022/03/21 08:07:49;;;;;;;8.50;7.53;;;;;;;4.52;46.72;98682.94;4974262;28;20248;-54
2022/03/21 08:10:18;;;;;;;7.83;7.13;;;;;;;4.77;46.93;98681.22;5009665;28;20620;-55
2022/03/21 08:12:47;;;;;;;11.53;7.77;;;;;;;4.72;46.97;98685.94;4994263;28;20212;-55
2022/03/21 08:15:17;;;;;;;7.80;7.20;;;;;;;4.54;47.98;98686.31;5010842;28;20274;-56
2022/03/21 08:17:50;;;;;;;7.83;7.20;;;;;;;4.66;46.79;98687.22;5007333;28;20239;-51
2022/03/21 08:20:19;;;;;;;8.43;7.63;;;;;;;4.86;47.16;98683.16;4988290;28;20231;-54
2022/03/21 08:22:48;;;;;;;7.20;6.50;;;;;;;5.09;46.55;98685.91;4972357;28;21275;-55
2022/03/21 08:25:17;;;;;;;10.57;8.00;;;;;;;5.16;45.76;98678.41;5013206;28;20592;-57
2022/03/21 08:27:45;;;;;;;8.10;7.30;;;;;;;5.13;45.99;98681.25;4993073;28;20263;-54
2022/03/21 08:30:15;;;;;;;7.77;6.67;;;;;;;5.33;45.84;98679.78;5010353;28;20266;-53
2022/03/21 08:32:46;;;;;;;8.73;7.83;;;;;;;5.63;45.26;98683.72;5006081;28;20220;-57
2022/03/21 08:35:15;;;;;;;7.97;7.20;;;;;;;5.88;44.96;98687.13;4970648;28;20500;-52
2022/03/21 08:37:44;;;;;;;11.57;7.73;;;;;;;6.12;44.88;98683.59;5008581;28;20406;-52
2022/03/21 08:40:14;;;;;;;8.50;7.67;;;;;;;6.04;44.31;98689.44;4977690;28;20255;-50
2022/03/21 08:42:43;;;;;;;7.53;6.93;;;;;;;6.00;43.53;98683.56;5007254;28;20379;-57
2022/03/21 08:45:12;;;;;;;8.50;7.70;;;;;;;6.12;44.06;98679.19;4998785;28;20311;-51
2022/03/21 08:47:41;;;;;;;11.23;7.23;;;;;;;6.34;43.46;98677.50;4993102;28;20245;-54
2022/03/21 08:50:11;;;;;;;7.73;6.93;;;;;;;6.73;42.48;98682.38;5010834;28;20212;-52
2022/03/21 08:52:40;;;;;;;7.03;6.43;;;;;;;6.75;42.70;98678.66;4981806;28;20501;-56
2022/03/21 08:55:10;;;;;;;8.57;7.87;;;;;;;6.68;43.32;98674.00;4970776;28;20580;-54
2022/03/21 08:57:38;;;;;;;8.53;7.73;;;;;;;7.09;42.09;98675.91;5005228;28;20298;-52
2022/03/21 09:00:08;;;;;;;8.60;7.70;;;;;;;7.06;41.39;98670.09;4973779;28;20228;-51
2022/03/21 09:02:36;;;;;;;11.03;7.83;;;;;;;7.17;40.77;98671.81;4988181;28;20208;-58
2022/03/21 09:05:05;;;;;;;8.03;7.27;;;;;;;7.37;41.28;98667.53;5006392;28;20208;-56
2022/03/21 09:07:35;;;;;;;8.40;7.63;;;;;;;7.20;40.85;98659.22;4970919;28;20343;-51
2022/03/21 09:10:04;;;;;;;8.00;6.73;;;;;;;7.37;41.14;98652.56;4975422;28;21006;-56
2022/03/21 09:12:32;;;;;;;8.83;7.67;;;;;;;7.19;41.14;98664.63;4990178;28;20216;-57
2022/03/21 09:15:00;;;;;;;7.33;6.63;;;;;;;7.32;41.19;98653.91;4999876;28;20208;-56
2022/03/21 09:17:29;;;;;;;7.23;6.53;;;;;;;7.73;40.29;98654.06;5007275;28;21063;-54
2022/03/21 09:19:57;;;;;;;9.43;7.67;;;;;;;7.83;39.15;98657.59;5013921;28;21188;-57
2022/03/21 09:22:25;;;;;;;8.07;7.27;;;;;;;7.82;39.75;98661.19;4968106;28;20212;-53
2022/03/21 09:24:55;;;;;;;7.70;6.90;;;;;;;7.81;39.77;98657.72;5009944;28;20668;-58
2022/03/21 09:27:23;;;;;;;8.13;7.43;;;;;;;7.87;39.09;98658.19;4972418;28;20740;-55
2022/03/21 09:29:51;;;;;;;7.40;6.70;;;;;;;8.16;39.58;98657.50;4994600;28;20553;-52
2022/03/21 09:32:20;;;;;;;6.97;6.30;;;;;;;7.89;39.01;98656.25;5005599;28;20269;-52
2022/03/21 09:34:49;;;;;;;8.30;7.53;;;;;;;7.73;40.03;98649.59;5006867;28;20288;-56
2022/03/21 09:37:18;;;;;;;7.87;7.00;;;;;;;7.87;39.27;98655.53;4991824;28;20611;-50
2022/03/21 09:39:46;;;;;;;7.10;6.40;;;;;;;8.29;39.60;98655.44;5003511;28;20238;-56
2022/03/21 09:42:16;;;;;;;7.17;6.53;;;;;;;8.32;39.78;98651.69;4969910;28;20298;-56
2022/03/21 09:44:45;;;;;;;11.77;7.00;;;;;;;8.74;38.50;98656.03;4990222;28;20262;-58
2022/03/21 09:49:59;;;;;;;9.07;7.87;;;;;;;8.51;37.70;98649.16;5010263;28;20774;-55
2022/03/21 09:52:29;;;;;;;7.70;7.00;;;;;;;8.44;38.19;98647.16;4981793;28;20485;-59
2022/03/21 09:54:57;;;;;;;7.53;6.83;;;;;;;8.69;38.96;98646.69;5007512;28;20248;-58
2022/03/21 09:57:27;;;;;;;7.20;6.60;;;;;;;8.71;37.93;98643.91;4970170;28;20298;-56
2022/03/21 09:59:57;;;;;;;8.17;7.23;;;;;;;8.84;37.29;98635.72;5005125;28;20579;-56
2022/03/21 10:02:25;;;;;;;7.67;6.97;;;;;;;8.47;38.70;98641.59;4994404;28;20298;-56
2022/03/21 10:04:54;;;;;;;8.97;7.40;;;;;;;8.80;39.11;98643.13;5006329;28;20584;-56
2022/03/21 10:07:24;;;;;;;7.57;6.87;;;;;;;8.40;37.66;98638.69;5006054;28;20291;-54
2022/03/21 10:10:07;;;;;;;17.97;14.93;;;;;;;9.00;36.98;98634.38;4983109;28;20472;-59
2022/03/21 10:12:37;;;;;;;7.40;6.80;;;;;;;9.07;36.79;98628.38;4966498;28;21295;-55
2022/03/21 10:15:07;;;;;;;452.80;63.40;;;;;;;9.35;36.82;98620.56;5005938;28;20209;-55
2022/03/21 10:17:35;;;;;;;16.33;8.37;;;;;;;9.22;38.46;98622.69;4995622;28;20455;-57
2022/03/21 10:20:08;;;;;;;7.33;6.73;;;;;;;9.26;37.63;98621.44;5005981;28;20232;-56
2022/03/21 10:22:43;;;;;;;7.83;7.03;;;;;;;9.10;38.18;98628.13;5005949;28;20425;-60
2022/03/21 10:25:16;;;;;;;6.70;6.10;;;;;;;9.41;38.03;98621.84;4978875;28;20204;-59
2022/03/21 10:27:48;;;;;;;10.77;7.70;;;;;;;9.07;37.05;98617.78;5004867;28;20208;-55
2022/03/21 10:30:22;;;;;;;9.20;6.93;;;;;;;9.30;37.28;98619.34;4983640;28;20204;-56
2022/03/21 10:32:52;;;;;;;7.40;6.67;;;;;;;9.54;37.08;98619.72;4993062;28;20308;-55
2022/03/21 10:35:22;;;;;;;8.00;7.20;;;;;;;9.81;37.68;98618.13;5004224;28;20270;-55
2022/03/21 10:37:52;;;;;;;7.87;7.10;;;;;;;9.96;35.72;98618.50;5006687;28;20212;-53
2022/03/21 10:40:30;;;;;;;7.40;6.30;;;;;;;9.91;36.43;98623.41;4978104;28;20924;-55
2022/03/21 10:43:03;;;;;;;7.33;6.63;;;;;;;9.79;36.01;98616.59;4971882;28;20212;-55
2022/03/21 10:45:45;;;;;;;8.07;6.67;;;;;;;10.24;35.34;98620.34;5006123;28;20671;-51
2022/03/21 10:48:14;;;;;;;7.90;7.20;;;;;;;10.24;36.73;98618.53;4992798;28;20317;-55
2022/03/21 10:50:45;;;;;;;7.70;7.00;;;;;;;9.71;36.12;98617.34;5007627;28;20266;-56
2022/03/21 10:53:15;;;;;;;9.60;7.47;;;;;;;10.38;36.46;98611.06;5007144;28;20743;-53
2022/03/21 10:55:44;;;;;;;10.93;7.43;;;;;;;10.11;35.83;98613.56;5005693;28;20209;-54
2022/03/21 10:58:15;;;;;;;8.10;7.40;;;;;;;10.45;35.84;98606.88;4939905;28;20433;-56
2022/03/21 11:00:43;;;;;;;7.63;7.03;;;;;;;10.61;36.30;98605.41;5002940;28;20208;-55
2022/03/21 11:03:15;;;;;;;7.97;7.27;;;;;;;10.46;34.99;98603.25;4990786;28;20372;-50
2022/03/21 11:05:46;;;;;;;7.67;6.97;;;;;;;10.64;35.83;98599.81;5006919;28;20215;-52
2022/03/21 11:08:17;;;;;;;7.73;7.03;;;;;;;10.84;36.21;98597.84;5003926;28;20432;-53
2022/03/21 11:10:46;;;;;;;8.13;7.27;;;;;;;10.98;35.86;98592.00;5007608;28;20289;-53
2022/03/21 11:13:16;;;;;;;9.53;7.37;;;;;;;11.10;35.86;98591.78;4979886;28;20438;-57
2022/03/21 11:15:44;;;;;;;8.33;7.53;;;;;;;10.91;35.98;98590.97;4964115;28;20334;-55
2022/03/21 11:18:13;;;;;;;7.83;7.20;;;;;;;11.31;35.70;98587.97;4997451;28;20862;-50
2022/03/21 11:20:41;;;;;;;8.37;7.57;;;;;;;11.28;33.89;98579.34;4993907;28;20223;-56
2022/03/21 11:23:10;;;;;;;8.43;7.67;;;;;;;11.06;35.14;98582.47;5004601;28;20314;-52
2022/03/21 11:25:40;;;;;;;7.40;6.70;;;;;;;11.19;35.66;98587.38;5005298;28;20208;-54
2022/03/21 11:29:00;;;;;;;7.43;6.67;;;;;;;11.48;35.64;98576.47;4974326;28;20318;-57
2022/03/21 11:32:10;;;;;;;8.73;7.83;;;;;;;11.25;35.23;98579.66;4894069;28;20308;-54
2022/03/21 11:34:48;;;;;;;8.53;7.73;;;;;;;11.32;35.19;98576.38;4895230;28;20838;-57
2022/03/21 11:37:27;;;;;;;8.27;7.53;;;;;;;11.28;35.31;98574.03;4918310;28;20222;-57
2022/03/21 11:40:30;;;;;;;39.37;11.33;;;;;;;11.55;36.01;98580.19;4925596;28;20326;-58
2022/03/21 11:43:26;;;;;;;8.73;8.00;;;;;;;11.27;35.56;98572.38;4906810;28;22218;-58
2022/03/21 11:45:57;;;;;;;7.80;7.03;;;;;;;11.44;36.53;98572.47;4889443;28;20231;-59
2022/03/21 11:48:43;;;;;;;9.17;8.27;;;;;;;11.67;35.63;98575.44;4927945;28;20227;-58
2022/03/21 11:51:29;;;;;;;8.07;7.37;;;;;;;11.78;33.55;98571.69;4899386;28;20289;-58
2022/03/21 11:53:58;;;;;;;8.13;7.43;;;;;;;11.81;34.43;98567.91;4927901;28;20207;-57
2022/03/21 11:56:57;;;;;;;7.40;6.77;;;;;;;11.62;34.11;98563.66;4929029;28;20301;-54
2022/03/21 11:59:54;;;;;;;6.83;6.27;;;;;;;11.77;35.27;98556.75;4909664;28;20294;-51
2022/03/21 12:02:58;;;;;;;7.60;6.87;;;;;;;12.08;36.29;98550.09;4900598;28;20237;-55
2022/03/21 12:05:50;;;;;;;7.33;6.63;;;;;;;12.07;33.80;98546.63;4920938;28;20213;-56